Time;durP1;ratioP1;P1;durP2;ratioP2;P2;SDS_P1;SDS_P2;PMS_P1;PMS_P2;Temp;Humidity;BMP_temperature;BMP_pressure;BME280_temperature;BME280_humidity;BME280_pressure;Samples;Min_cycle;Max_cycle;Signal;HPM_P1;HPM_P2
2021/03/09 00:00:37;;;;;;;5.85;2.63;;;2.50;77.60;;;;;;5049654;28;20041;-46
2021/03/09 00:03:04;;;;;;;5.40;2.30;;;2.50;78.40;;;;;;5048422;28;20483;-47
2021/03/09 00:05:29;;;;;;;4.85;2.70;;;2.50;77.70;;;;;;5049066;28;20092;-46
2021/03/09 00:07:54;;;;;;;4.93;2.47;;;2.50;76.20;;;;;;5049705;28;20104;-46
2021/03/09 00:10:20;;;;;;;3.67;2.25;;;2.50;76.70;;;;;;5048069;28;20028;-45
2021/03/09 00:12:45;;;;;;;3.67;2.60;;;2.50;76.70;;;;;;5049456;28;20270;-44
2021/03/09 00:15:11;;;;;;;4.75;2.38;;;2.50;76.50;;;;;;5048927;28;20028;-45
2021/03/09 00:17:37;;;;;;;4.63;2.20;;;2.50;75.70;;;;;;5049135;28;20554;-45
2021/03/09 00:20:04;;;;;;;3.45;2.20;;;2.50;76.40;;;;;;5049156;28;20021;-46
2021/03/09 00:22:30;;;;;;;4.68;2.10;;;2.60;81.50;;;;;;5049547;28;20084;-43
2021/03/09 00:24:56;;;;;;;5.40;2.10;;;2.50;76.60;;;;;;5047345;28;20029;-46
2021/03/09 00:27:21;;;;;;;5.18;2.33;;;2.50;74.90;;;;;;5049425;28;20119;-47
2021/03/09 00:29:47;;;;;;;4.03;2.30;;;2.60;74.80;;;;;;5048958;28;20413;-44
2021/03/09 00:32:12;;;;;;;4.60;2.85;;;2.60;74.90;;;;;;5049219;28;20055;-44
2021/03/09 00:34:38;;;;;;;3.72;2.08;;;2.60;74.60;;;;;;5051487;28;20056;-45
2021/03/09 00:37:05;;;;;;;3.63;1.83;;;2.60;74.90;;;;;;5066842;28;20031;-44
2021/03/09 00:39:30;;;;;;;4.38;2.00;;;2.60;74.80;;;;;;5048477;28;20024;-44
2021/03/09 00:41:56;;;;;;;3.55;1.98;;;2.60;76.00;;;;;;5048954;28;20293;-44
2021/03/09 00:44:21;;;;;;;4.43;2.17;;;2.60;75.60;;;;;;5047757;28;20025;-43
2021/03/09 00:46:49;;;;;;;6.38;2.03;;;2.60;74.60;;;;;;5068146;28;20486;-45
2021/03/09 00:49:15;;;;;;;6.53;2.22;;;2.60;77.50;;;;;;5051507;28;20063;-44
2021/03/09 00:51:40;;;;;;;4.43;2.08;;;2.50;74.50;;;;;;5047397;28;20025;-45
2021/03/09 00:54:06;;;;;;;6.47;2.72;;;2.60;74.40;;;;;;5047530;28;20103;-46
2021/03/09 00:56:31;;;;;;;6.10;2.05;;;2.60;73.30;;;;;;5046759;28;20025;-45
2021/03/09 00:58:56;;;;;;;3.05;1.67;;;2.50;72.40;;;;;;5048529;28;20081;-46
2021/03/09 01:01:22;;;;;;;4.47;2.10;;;2.60;73.80;;;;;;5048496;28;20032;-47
2021/03/09 01:03:47;;;;;;;4.63;2.28;;;2.50;72.30;;;;;;5048229;28;20028;-45
2021/03/09 01:06:13;;;;;;;4.20;1.75;;;2.50;72.20;;;;;;5047874;28;20044;-46
2021/03/09 01:08:38;;;;;;;5.28;2.05;;;2.50;72.10;;;;;;5048718;28;20519;-46
2021/03/09 01:11:04;;;;;;;4.57;2.28;;;2.60;71.10;;;;;;5048405;28;20029;-46
2021/03/09 01:13:30;;;;;;;5.70;1.80;;;2.60;70.80;;;;;;5048568;28;20028;-45
2021/03/09 01:15:56;;;;;;;4.38;2.00;;;2.60;70.00;;;;;;5048404;28;20467;-43
2021/03/09 01:18:22;;;;;;;4.18;1.92;;;2.60;70.40;;;;;;5048373;28;20021;-45
2021/03/09 01:20:48;;;;;;;5.00;1.90;;;2.50;69.90;;;;;;5048410;28;20104;-44
2021/03/09 01:23:14;;;;;;;4.80;2.20;;;2.50;69.70;;;;;;5048488;28;20136;-44
2021/03/09 01:25:40;;;;;;;5.68;1.70;;;2.60;69.10;;;;;;5047852;28;20025;-44
2021/03/09 01:28:06;;;;;;;6.63;2.15;;;2.60;69.50;;;;;;5062940;28;20020;-44
2021/03/09 01:30:32;;;;;;;4.32;1.85;;;2.60;69.10;;;;;;5053824;28;20267;-43
2021/03/09 01:32:57;;;;;;;6.00;2.10;;;2.60;69.60;;;;;;5053578;28;20112;-43
2021/03/09 01:35:23;;;;;;;4.18;1.75;;;2.60;69.20;;;;;;5067283;28;20024;-43
2021/03/09 01:37:48;;;;;;;6.50;2.40;;;2.60;69.60;;;;;;5068093;28;20037;-44
2021/03/09 01:40:14;;;;;;;4.63;2.20;;;2.60;69.80;;;;;;5066706;28;20028;-43
2021/03/09 01:42:39;;;;;;;4.88;2.00;;;2.60;69.00;;;;;;5068018;28;20032;-43
2021/03/09 01:45:06;;;;;;;4.50;2.00;;;2.70;69.70;;;;;;5067467;28;20032;-43
2021/03/09 01:47:34;;;;;;;4.57;2.10;;;2.60;69.20;;;;;;5065964;28;20071;-43
2021/03/09 01:50:00;;;;;;;5.28;1.88;;;2.60;69.40;;;;;;5047702;28;20441;-45
2021/03/09 01:52:26;;;;;;;5.03;2.83;;;2.60;69.60;;;;;;5049874;28;20082;-47
2021/03/09 01:54:52;;;;;;;5.00;1.95;;;2.60;69.50;;;;;;5051627;28;20024;-44
2021/03/09 01:57:18;;;;;;;3.75;1.92;;;2.60;70.20;;;;;;5051738;28;20029;-46
2021/03/09 01:59:44;;;;;;;10.60;2.90;;;2.60;71.80;;;;;;5052073;28;20040;-47
2021/03/09 02:02:09;;;;;;;5.15;2.58;;;2.60;70.30;;;;;;5051783;28;20055;-43
2021/03/09 02:04:35;;;;;;;8.30;2.58;;;2.60;70.60;;;;;;5051331;28;20471;-46
2021/03/09 02:07:01;;;;;;;5.60;2.28;;;2.60;70.50;;;;;;5051290;28;20036;-43
2021/03/09 02:09:27;;;;;;;3.95;2.30;;;2.60;70.80;;;;;;5051635;28;20111;-43
2021/03/09 02:11:52;;;;;;;4.57;2.40;;;2.60;70.90;;;;;;5050467;28;20569;-44
2021/03/09 02:14:49;;;;;;;4.88;2.42;;;2.60;72.30;;;;;;5051527;28;20060;-44
2021/03/09 02:17:33;;;;;;;3.90;2.20;;;2.50;71.40;;;;;;5051461;28;20283;-43
2021/03/09 02:20:24;;;;;;;6.40;2.70;;;2.50;71.70;;;;;;5051384;28;20028;-45
2021/03/09 02:23:08;;;;;;;5.47;2.50;;;2.50;71.50;;;;;;5050179;28;20484;-44
2021/03/09 02:26:07;;;;;;;3.25;1.80;;;2.50;71.90;;;;;;5051347;28;20466;-43
2021/03/09 02:28:47;;;;;;;4.22;2.20;;;2.50;72.40;;;;;;5051829;28;20025;-45
2021/03/09 02:31:13;;;;;;;6.43;3.00;;;2.40;72.50;;;;;;5051358;28;20132;-44
2021/03/09 02:33:50;;;;;;;5.72;2.60;;;2.40;72.30;;;;;;5051416;28;20147;-44
2021/03/09 02:36:21;;;;;;;5.05;2.45;;;2.50;72.60;;;;;;5050095;28;20029;-47
2021/03/09 02:38:58;;;;;;;6.85;2.47;;;2.50;74.40;;;;;;5051139;28;20040;-44
2021/03/09 02:41:25;;;;;;;5.03;2.25;;;2.40;74.40;;;;;;5051047;28;20021;-47
2021/03/09 02:43:53;;;;;;;3.72;2.25;;;2.40;76.60;;;;;;5051421;28;20048;-44
2021/03/09 02:46:21;;;;;;;4.53;2.47;;;2.40;79.40;;;;;;5050257;28;20025;-44
2021/03/09 02:48:47;;;;;;;4.22;2.47;;;2.40;75.90;;;;;;5049078;28;20017;-42
2021/03/09 02:51:13;;;;;;;3.70;2.15;;;2.40;76.20;;;;;;5050959;28;20033;-46
2021/03/09 02:53:46;;;;;;;3.75;2.45;;;2.40;76.30;;;;;;5051056;28;20025;-45
2021/03/09 02:56:13;;;;;;;4.75;2.15;;;2.30;77.60;;;;;;5050333;28;20028;-44
2021/03/09 02:58:43;;;;;;;5.40;2.55;;;2.40;78.60;;;;;;5050628;28;20307;-44
2021/03/09 03:01:09;;;;;;;3.80;2.00;;;2.30;83.30;;;;;;5050688;28;20071;-44
2021/03/09 03:03:35;;;;;;;4.10;2.40;;;2.30;82.00;;;;;;5052337;28;20029;-45
2021/03/09 03:06:01;;;;;;;3.28;1.90;;;2.20;81.50;;;;;;5058023;28;20031;-44
2021/03/09 03:08:30;;;;;;;3.70;2.35;;;2.20;82.70;;;;;;5060142;28;20107;-44
2021/03/09 03:10:56;;;;;;;3.40;1.90;;;2.20;80.20;;;;;;5061255;28;20446;-44
2021/03/09 03:13:23;;;;;;;5.05;2.60;;;2.20;81.70;;;;;;5059014;28;20021;-44
2021/03/09 03:15:52;;;;;;;3.47;2.25;;;2.20;83.20;;;;;;5059723;28;20458;-45
2021/03/09 03:18:19;;;;;;;4.53;2.67;;;2.10;84.80;;;;;;5058033;28;20059;-45
2021/03/09 03:20:48;;;;;;;4.13;2.35;;;2.00;85.90;;;;;;5059226;28;20025;-45
2021/03/09 03:23:14;;;;;;;8.05;2.50;;;2.10;85.60;;;;;;5059817;28;20542;-45
2021/03/09 03:25:40;;;;;;;4.70;2.38;;;2.00;86.70;;;;;;5060571;28;20351;-44
2021/03/09 03:28:07;;;;;;;3.45;2.28;;;1.90;87.40;;;;;;5059235;28;20100;-45
2021/03/09 03:30:33;;;;;;;6.95;2.60;;;1.90;86.10;;;;;;5059556;28;20052;-45
2021/03/09 03:33:00;;;;;;;5.57;2.50;;;1.90;89.20;;;;;;5059288;28;20052;-44
2021/03/09 03:35:26;;;;;;;4.25;2.90;;;1.90;90.10;;;;;;5057112;28;20493;-46
2021/03/09 03:37:52;;;;;;;7.28;3.17;;;1.80;87.50;;;;;;5050266;28;20036;-45
2021/03/09 03:40:19;;;;;;;3.42;2.17;;;1.80;87.60;;;;;;5050190;28;20037;-45
2021/03/09 03:42:45;;;;;;;6.20;2.30;;;1.70;87.10;;;;;;5049760;28;20033;-44
2021/03/09 03:45:12;;;;;;;7.78;2.80;;;1.70;88.70;;;;;;5048821;28;20025;-45
2021/03/09 03:47:39;;;;;;;9.98;2.70;;;1.70;92.30;;;;;;5048530;28;20024;-44
2021/03/09 03:50:07;;;;;;;5.13;2.63;;;1.60;87.30;;;;;;5049106;28;20028;-46
2021/03/09 03:52:47;;;;;;;3.60;2.78;;;1.60;88.30;;;;;;5049669;28;20104;-44
2021/03/09 03:55:48;;;;;;;3.75;2.35;;;1.60;90.20;;;;;;5049190;28;20517;-44
2021/03/09 03:58:33;;;;;;;7.65;2.80;;;1.60;90.30;;;;;;5049638;28;20032;-45
2021/03/09 04:00:59;;;;;;;3.45;2.10;;;1.60;92.40;;;;;;5048414;28;20025;-45
2021/03/09 04:03:27;;;;;;;3.72;2.17;;;1.50;92.20;;;;;;5048804;28;20110;-45
2021/03/09 04:05:54;;;;;;;4.45;2.25;;;1.60;90.30;;;;;;5047518;28;20029;-45
2021/03/09 04:08:22;;;;;;;5.65;2.22;;;1.50;92.00;;;;;;5048983;28;20079;-45
2021/03/09 04:10:50;;;;;;;4.85;2.50;;;1.50;92.60;;;;;;5049222;28;20445;-44
2021/03/09 04:13:17;;;;;;;4.25;2.45;;;1.50;93.20;;;;;;5047535;28;20060;-44
2021/03/09 04:15:43;;;;;;;6.10;2.60;;;1.50;92.80;;;;;;5046206;28;20029;-44
2021/03/09 04:18:11;;;;;;;4.72;2.53;;;1.60;92.90;;;;;;5048847;28;20229;-44
2021/03/09 04:20:41;;;;;;;5.32;2.40;;;1.60;95.40;;;;;;5048771;28;20020;-44
2021/03/09 04:23:06;;;;;;;4.78;2.40;;;1.60;93.30;;;;;;5049129;28;20029;-44
2021/03/09 04:25:38;;;;;;;6.47;2.97;;;1.60;94.50;;;;;;5048450;28;20407;-43
2021/03/09 04:28:04;;;;;;;5.35;2.53;;;1.60;95.70;;;;;;5048999;28;20053;-45
2021/03/09 04:30:33;;;;;;;3.78;2.10;;;1.60;96.80;;;;;;5048861;28;20060;-47
2021/03/09 04:33:02;;;;;;;5.30;2.70;;;1.60;96.80;;;;;;5048929;28;20021;-44
2021/03/09 04:35:28;;;;;;;4.55;2.58;;;1.60;95.00;;;;;;5047773;28;20021;-44
2021/03/09 04:37:55;;;;;;;7.90;2.88;;;1.60;98.40;;;;;;5048946;28;20075;-43
2021/03/09 04:40:22;;;;;;;7.30;3.40;;;1.70;98.30;;;;;;5047896;28;20045;-43
2021/03/09 04:42:47;;;;;;;6.15;2.60;;;1.70;96.50;;;;;;5048920;28;20024;-45
2021/03/09 04:45:13;;;;;;;6.10;3.30;;;1.70;94.10;;;;;;5048391;28;20270;-45
2021/03/09 04:47:40;;;;;;;5.03;2.88;;;1.70;93.60;;;;;;5047444;28;20021;-44
2021/03/09 04:50:08;;;;;;;6.15;3.03;;;1.80;93.10;;;;;;5047965;28;20033;-44
2021/03/09 04:52:34;;;;;;;11.05;3.67;;;1.80;92.60;;;;;;5048661;28;20029;-44
2021/03/09 04:55:02;;;;;;;4.22;2.78;;;1.70;93.00;;;;;;5048053;28;20024;-44
2021/03/09 04:57:39;;;;;;;4.28;2.85;;;1.80;94.00;;;;;;5048431;28;20071;-44
2021/03/09 05:00:07;;;;;;;3.55;3.05;;;1.80;93.90;;;;;;5048504;28;20057;-44
2021/03/09 05:02:32;;;;;;;6.85;3.28;;;1.80;94.20;;;;;;5048715;28;20099;-47
2021/03/09 05:04:58;;;;;;;5.85;3.47;;;1.80;94.80;;;;;;5047845;28;20108;-43
2021/03/09 05:07:23;;;;;;;6.88;3.78;;;1.70;95.50;;;;;;5048463;28;20013;-44
2021/03/09 05:09:49;;;;;;;6.65;3.40;;;1.80;97.20;;;;;;5048321;28;20040;-44
2021/03/09 05:12:14;;;;;;;5.60;3.17;;;1.80;95.10;;;;;;5048610;28;20029;-45
2021/03/09 05:14:41;;;;;;;6.75;3.33;;;1.80;95.90;;;;;;5051556;28;20017;-44
2021/03/09 05:17:07;;;;;;;5.60;3.20;;;1.90;95.10;;;;;;5058793;28;20053;-44
2021/03/09 05:19:33;;;;;;;5.78;3.45;;;1.80;95.10;;;;;;5055475;28;20078;-44
2021/03/09 05:21:58;;;;;;;7.47;3.55;;;1.90;95.70;;;;;;5057586;28;20033;-44
2021/03/09 05:24:24;;;;;;;7.47;4.25;;;1.90;97.50;;;;;;5053481;28;20493;-46
2021/03/09 05:26:49;;;;;;;5.55;3.10;;;1.90;96.20;;;;;;5048709;28;20082;-46
2021/03/09 05:29:14;;;;;;;9.32;3.47;;;1.90;95.20;;;;;;5052321;28;20425;-44
2021/03/09 05:31:40;;;;;;;7.18;3.03;;;1.90;95.40;;;;;;5052356;28;20040;-44
2021/03/09 05:34:05;;;;;;;7.57;3.55;;;1.90;95.20;;;;;;5052333;28;20052;-45
2021/03/09 05:36:34;;;;;;;6.57;3.42;;;1.90;95.50;;;;;;5051491;28;20033;-46
2021/03/09 05:39:00;;;;;;;6.60;3.50;;;1.90;95.90;;;;;;5051950;28;20068;-44
2021/03/09 05:41:26;;;;;;;5.75;3.90;;;1.90;96.00;;;;;;5052155;28;20447;-44
2021/03/09 05:43:52;;;;;;;5.28;3.60;;;1.90;97.50;;;;;;5051999;28;20104;-44
2021/03/09 05:46:17;;;;;;;9.32;4.28;;;1.90;96.10;;;;;;5051749;28;20048;-46
2021/03/09 05:48:43;;;;;;;6.05;3.17;;;1.90;95.20;;;;;;5051925;28;20021;-44
2021/03/09 05:51:09;;;;;;;5.75;3.15;;;1.90;95.90;;;;;;5051998;28;20091;-44
2021/03/09 05:53:34;;;;;;;5.68;3.55;;;1.90;95.70;;;;;;5052130;28;20032;-48
2021/03/09 05:56:03;;;;;;;6.97;3.35;;;1.90;96.00;;;;;;5050792;28;20033;-46
2021/03/09 05:58:28;;;;;;;7.32;3.63;;;2.00;96.50;;;;;;5051199;28;20518;-43
2021/03/09 06:00:54;;;;;;;6.88;2.95;;;2.00;99.70;;;;;;5052347;28;20053;-45
2021/03/09 06:03:20;;;;;;;12.05;3.97;;;2.00;97.00;;;;;;5052068;28;20032;-45
2021/03/09 06:05:45;;;;;;;5.30;3.40;;;2.00;96.60;;;;;;5050899;28;20037;-44
2021/03/09 06:08:11;;;;;;;8.88;3.95;;;2.00;96.40;;;;;;5060970;28;20079;-43
2021/03/09 06:10:36;;;;;;;6.78;4.20;;;2.10;96.30;;;;;;5068704;28;20032;-45
2021/03/09 06:13:02;;;;;;;5.25;3.25;;;2.10;96.40;;;;;;5065326;28;20092;-45
2021/03/09 06:15:28;;;;;;;7.32;3.95;;;2.10;96.20;;;;;;5051534;28;20032;-46
2021/03/09 06:17:58;;;;;;;5.88;3.38;;;2.10;96.30;;;;;;5051431;28;20505;-46
2021/03/09 06:20:29;;;;;;;10.50;3.70;;;2.20;95.70;;;;;;5055849;28;20035;-46
2021/03/09 06:22:58;;;;;;;9.65;5.72;;;2.20;94.70;;;;;;5051228;28;20629;-44
2021/03/09 06:25:27;;;;;;;6.07;3.70;;;2.20;94.60;;;;;;5059213;28;20025;-44
2021/03/09 06:27:53;;;;;;;8.48;4.28;;;2.30;94.40;;;;;;5060371;28;20032;-44
2021/03/09 06:30:24;;;;;;;5.95;3.72;;;2.30;94.20;;;;;;5059034;28;20440;-44
2021/03/09 06:32:50;;;;;;;5.63;3.40;;;2.30;93.60;;;;;;5060775;28;20028;-45
2021/03/09 06:35:42;;;;;;;4.63;3.20;;;2.40;93.90;;;;;;5059198;28;20021;-44
2021/03/09 06:38:27;;;;;;;6.88;3.83;;;2.40;93.50;;;;;;5060170;28;20048;-44
2021/03/09 06:41:17;;;;;;;8.95;4.00;;;2.50;94.60;;;;;;5061226;28;20063;-45
2021/03/09 06:44:03;;;;;;;6.65;3.63;;;2.50;93.20;;;;;;5061456;28;20017;-44
2021/03/09 06:46:29;;;;;;;8.20;4.72;;;2.60;93.00;;;;;;5059118;28;20505;-43
2021/03/09 06:49:02;;;;;;;6.15;3.50;;;2.60;93.40;;;;;;5060082;28;20033;-44
2021/03/09 06:51:36;;;;;;;9.02;4.18;;;2.70;93.30;;;;;;5057808;28;20466;-45
2021/03/09 06:54:06;;;;;;;7.57;3.83;;;2.80;92.50;;;;;;5057950;28;20482;-45
2021/03/09 06:56:35;;;;;;;5.70;3.58;;;2.80;91.70;;;;;;5058549;28;20564;-45
2021/03/09 06:59:21;;;;;;;7.70;3.58;;;2.90;92.00;;;;;;5060015;28;20103;-44
2021/03/09 07:02:09;;;;;;;6.28;3.78;;;2.90;91.60;;;;;;5058730;28;20094;-46
2021/03/09 07:04:37;;;;;;;8.93;4.32;;;3.00;91.00;;;;;;5060537;28;20029;-45
2021/03/09 07:07:03;;;;;;;7.55;4.60;;;3.10;91.10;;;;;;5057462;28;20478;-45
2021/03/09 07:09:29;;;;;;;8.38;4.60;;;3.10;92.00;;;;;;5057940;28;20052;-47
2021/03/09 07:11:55;;;;;;;7.53;4.05;;;3.30;92.00;;;;;;5055008;28;20623;-46
2021/03/09 07:14:22;;;;;;;7.00;4.05;;;3.30;92.20;;;;;;5061167;28;20060;-46
2021/03/09 07:16:50;;;;;;;6.38;3.88;;;3.40;91.30;;;;;;5059096;28;20087;-45
2021/03/09 07:19:33;;;;;;;7.10;4.28;;;3.40;90.30;;;;;;5057855;28;20029;-47
2021/03/09 07:22:01;;;;;;;9.50;4.45;;;3.50;90.60;;;;;;5059350;28;20032;-45
2021/03/09 07:24:28;;;;;;;9.27;4.85;;;3.60;90.40;;;;;;5057867;28;20031;-45
2021/03/09 07:27:02;;;;;;;10.50;4.82;;;3.70;88.80;;;;;;5057453;28;20090;-45
2021/03/09 07:29:31;;;;;;;9.80;5.18;;;3.80;89.10;;;;;;5057581;28;20032;-46
2021/03/09 07:31:56;;;;;;;8.18;4.10;;;3.80;88.10;;;;;;5067633;28;20028;-48
2021/03/09 07:34:24;;;;;;;10.57;4.75;;;3.90;88.10;;;;;;5070238;28;20025;-48
2021/03/09 07:36:51;;;;;;;8.88;4.60;;;3.80;86.10;;;;;;5067663;28;20541;-45
2021/03/09 07:39:18;;;;;;;7.88;5.03;;;3.90;85.20;;;;;;5068224;28;20093;-45
2021/03/09 07:41:44;;;;;;;8.93;4.45;;;4.00;87.10;;;;;;5068600;28;20029;-45
2021/03/09 07:44:10;;;;;;;9.55;5.00;;;4.10;90.10;;;;;;5069790;28;20035;-46
2021/03/09 07:46:36;;;;;;;9.75;5.13;;;4.10;86.90;;;;;;5069406;28;20482;-45
2021/03/09 07:49:02;;;;;;;12.50;5.05;;;4.20;87.90;;;;;;5068155;28;20116;-46
2021/03/09 07:51:27;;;;;;;9.90;4.95;;;4.20;87.90;;;;;;5058331;28;20518;-45
2021/03/09 07:54:19;;;;;;;12.13;5.82;;;4.30;88.30;;;;;;5060143;28;20116;-46
2021/03/09 07:57:16;;;;;;;10.10;5.40;;;4.30;85.40;;;;;;5056771;28;20111;-46
2021/03/09 08:00:12;;;;;;;10.50;5.60;;;4.40;87.10;;;;;;5058920;28;20115;-49
2021/03/09 08:02:42;;;;;;;13.75;5.95;;;4.50;85.10;;;;;;5048424;28;20033;-46
2021/03/09 08:05:09;;;;;;;8.88;5.20;;;4.50;83.30;;;;;;5057805;28;20167;-48
2021/03/09 08:08:02;;;;;;;12.48;5.97;;;4.70;83.00;;;;;;5058707;28;20021;-47
2021/03/09 08:10:27;;;;;;;12.65;6.10;;;4.80;82.30;;;;;;5058121;28;20020;-48
2021/03/09 08:13:08;;;;;;;12.05;6.20;;;4.90;82.60;;;;;;5059022;28;20047;-46
2021/03/09 08:15:38;;;;;;;;;;;5.00;81.60;;;;;;5057359;28;20421;-46
2021/03/09 08:18:21;;;;;;;13.32;6.25;;;5.00;80.10;;;;;;5060608;28;19948;-47
2021/03/09 08:20:54;;;;;;;8.13;5.45;;;5.10;80.60;;;;;;5050141;28;20041;-45
2021/03/09 08:23:33;;;;;;;13.40;6.65;;;5.10;79.30;;;;;;5049145;28;20075;-45
2021/03/09 08:26:08;;;;;;;14.32;6.05;;;5.20;80.30;;;;;;5048650;28;20023;-47
2021/03/09 08:28:37;;;;;;;11.13;5.80;;;5.20;81.20;;;;;;5050404;28;20478;-45
2021/03/09 08:31:12;;;;;;;9.98;6.10;;;5.20;79.30;;;;;;5067708;28;20032;-45
2021/03/09 08:33:48;;;;;;;11.52;6.70;;;5.30;81.80;;;;;;5069263;28;20082;-46
2021/03/09 08:36:19;;;;;;;8.88;5.90;;;5.30;80.00;;;;;;5056083;28;20028;-47
2021/03/09 08:39:00;;;;;;;13.20;6.80;;;5.40;82.80;;;;;;5058037;28;20037;-52
2021/03/09 08:41:26;;;;;;;;;;;5.50;81.10;;;;;;5056884;28;20032;-48
2021/03/09 08:44:20;;;;;;;12.18;6.60;;;5.60;79.40;;;;;;5060108;28;19967;-46
2021/03/09 08:46:55;;;;;;;9.43;6.47;;;5.80;79.10;;;;;;5053399;28;20413;-46
2021/03/09 08:49:36;;;;;;;11.80;6.07;;;6.00;76.90;;;;;;5057793;28;20017;-47
2021/03/09 08:52:01;;;;;;;;;;;6.20;78.20;;;;;;5056239;28;20335;-46
2021/03/09 08:54:43;;;;;;;9.52;6.05;;;6.40;77.50;;;;;;5057267;28;19915;-46
2021/03/09 08:57:10;;;;;;;9.68;6.30;;;6.60;75.90;;;;;;5062892;28;20177;-47
2021/03/09 08:59:37;;;;;;;10.75;5.82;;;6.80;75.40;;;;;;5067202;28;20032;-47
2021/03/09 09:02:20;;;;;;;11.40;6.72;;;7.10;75.80;;;;;;5068334;28;20024;-46
2021/03/09 09:05:03;;;;;;;13.05;6.30;;;7.20;73.80;;;;;;5068307;28;20032;-48
2021/03/09 09:07:36;;;;;;;10.77;6.80;;;7.30;72.30;;;;;;5057614;28;20070;-47
2021/03/09 09:10:14;;;;;;;13.63;7.43;;;7.20;74.30;;;;;;5057127;28;20677;-46
2021/03/09 09:12:45;;;;;;;9.20;5.95;;;7.30;73.30;;;;;;5056586;28;20032;-47
2021/03/09 09:15:11;;;;;;;10.25;6.00;;;7.10;73.20;;;;;;5057649;28;20111;-46
2021/03/09 09:17:41;;;;;;;11.55;6.65;;;6.90;73.70;;;;;;5057664;28;20168;-47
2021/03/09 09:20:13;;;;;;;10.00;6.30;;;6.90;74.20;;;;;;5054004;28;20021;-48
2021/03/09 09:22:39;;;;;;;9.90;6.65;;;6.70;71.60;;;;;;5056557;28;20421;-47
2021/03/09 09:25:11;;;;;;;14.50;7.35;;;6.70;71.00;;;;;;5056475;28;20040;-46
2021/03/09 09:27:47;;;;;;;9.35;6.25;;;6.60;71.30;;;;;;5058865;28;20648;-46
2021/03/09 09:30:21;;;;;;;10.40;7.22;;;6.70;73.60;;;;;;5056484;28;20532;-46
2021/03/09 09:32:56;;;;;;;9.90;7.25;;;6.60;73.50;;;;;;5057391;28;20025;-46
2021/03/09 09:35:25;;;;;;;11.95;7.28;;;6.60;73.20;;;;;;5055164;28;20481;-46
2021/03/09 09:37:55;;;;;;;12.32;6.53;;;6.70;73.20;;;;;;5054155;28;20087;-47
2021/03/09 09:40:24;;;;;;;12.82;7.35;;;6.80;72.40;;;;;;5053969;28;20482;-47
2021/03/09 09:42:58;;;;;;;9.75;6.97;;;6.90;71.20;;;;;;5054802;28;20070;-46
2021/03/09 09:45:24;;;;;;;10.80;6.78;;;6.90;72.50;;;;;;5054795;28;20060;-46
2021/03/09 09:47:51;;;;;;;10.68;7.13;;;7.00;72.20;;;;;;5056382;28;20032;-46
2021/03/09 09:50:21;;;;;;;12.15;7.57;;;6.90;73.20;;;;;;5055331;28;20983;-46
2021/03/09 09:52:56;;;;;;;15.25;8.07;;;7.00;71.80;;;;;;5053290;28;20021;-46
2021/03/09 09:55:23;;;;;;;16.50;8.90;;;7.20;69.70;;;;;;5056066;28;20412;-46
2021/03/09 09:57:54;;;;;;;15.52;8.27;;;6.90;65.90;;;;;;5058215;28;20039;-46
2021/03/09 10:00:30;;;;;;;15.07;8.65;;;7.10;67.60;;;;;;5067008;28;20017;-47
2021/03/09 10:03:28;;;;;;;13.30;6.85;;;6.90;66.90;;;;;;5065865;28;20065;-46
2021/03/09 10:05:54;;;;;;;13.30;8.30;;;7.00;67.00;;;;;;5031417;28;20064;-46
2021/03/09 10:08:35;;;;;;;12.93;7.38;;;7.00;67.00;;;;;;5058551;28;20049;-46
2021/03/09 10:11:03;;;;;;;12.13;7.53;;;6.80;67.30;;;;;;5054555;28;20107;-45
2021/03/09 10:13:28;;;;;;;13.45;7.70;;;6.50;68.20;;;;;;5059034;28;20528;-45
2021/03/09 10:15:54;;;;;;;14.25;7.72;;;6.20;68.70;;;;;;5058933;28;20033;-47
2021/03/09 10:18:31;;;;;;;15.48;6.93;;;6.10;70.30;;;;;;5060636;28;20029;-45
2021/03/09 10:21:00;;;;;;;10.18;6.38;;;6.20;69.30;;;;;;5058177;28;20497;-44
2021/03/09 10:23:26;;;;;;;11.98;6.65;;;6.30;70.30;;;;;;5058700;28;20025;-45
2021/03/09 10:25:59;;;;;;;16.70;7.78;;;6.40;68.70;;;;;;5060989;28;20078;-46
2021/03/09 10:28:26;;;;;;;16.45;7.65;;;6.30;68.50;;;;;;5062600;28;20074;-45
2021/03/09 10:30:52;;;;;;;13.77;7.35;;;6.40;69.00;;;;;;5059600;28;20032;-45
2021/03/09 10:33:17;;;;;;;14.50;7.13;;;6.00;69.20;;;;;;5059996;28;20025;-44
2021/03/09 10:36:07;;;;;;;11.65;6.72;;;6.20;69.50;;;;;;5058944;28;20517;-46
2021/03/09 10:38:33;;;;;;;15.63;8.75;;;6.30;69.90;;;;;;5060375;28;20611;-45
2021/03/09 10:40:59;;;;;;;11.52;7.80;;;6.40;69.50;;;;;;5059060;28;20466;-45
2021/03/09 10:43:49;;;;;;;14.60;7.97;;;6.50;69.20;;;;;;5059219;28;20082;-45
2021/03/09 10:46:14;;;;;;;13.55;8.27;;;6.60;69.80;;;;;;5059451;28;20111;-45
2021/03/09 10:48:41;;;;;;;12.80;7.15;;;6.40;69.20;;;;;;5053686;28;20115;-45
2021/03/09 10:51:17;;;;;;;15.13;7.88;;;6.10;72.20;;;;;;5052959;28;20036;-45
2021/03/09 10:53:43;;;;;;;14.10;8.00;;;6.10;72.20;;;;;;5050747;28;20111;-45
2021/03/09 10:56:09;;;;;;;12.15;8.07;;;6.00;71.40;;;;;;5070412;28;20103;-45
2021/03/09 10:58:34;;;;;;;13.25;7.15;;;5.80;73.30;;;;;;5069313;28;20037;-45
2021/03/09 11:01:00;;;;;;;15.25;8.15;;;5.90;73.20;;;;;;5069484;28;20112;-45
2021/03/09 11:03:26;;;;;;;15.20;7.75;;;5.70;74.20;;;;;;5070662;28;20260;-45
2021/03/09 11:05:51;;;;;;;13.07;7.28;;;5.60;74.70;;;;;;5069913;28;20414;-45
2021/03/09 11:08:17;;;;;;;14.75;8.20;;;5.70;76.50;;;;;;5061485;28;20108;-44
2021/03/09 11:10:42;;;;;;;18.23;7.93;;;5.80;76.80;;;;;;5051754;28;20025;-45
2021/03/09 11:13:08;;;;;;;13.45;8.32;;;5.70;77.50;;;;;;5050619;28;20444;-45
2021/03/09 11:15:33;;;;;;;14.88;7.35;;;5.70;77.80;;;;;;5049870;28;20023;-45
2021/03/09 11:17:59;;;;;;;14.48;7.25;;;5.80;77.10;;;;;;5050425;28;20025;-45
2021/03/09 11:20:24;;;;;;;14.52;7.30;;;5.90;78.60;;;;;;5051110;28;20021;-46
2021/03/09 11:22:50;;;;;;;14.68;7.50;;;6.00;79.70;;;;;;5051034;28;20029;-45
2021/03/09 11:25:15;;;;;;;17.10;8.85;;;6.20;79.70;;;;;;5069048;28;20140;-45
2021/03/09 11:27:41;;;;;;;15.13;8.25;;;6.20;80.30;;;;;;5070425;28;20031;-45
2021/03/09 11:30:08;;;;;;;15.75;8.48;;;6.20;80.90;;;;;;5068723;28;20525;-45
2021/03/09 11:32:33;;;;;;;15.13;9.05;;;5.40;85.10;;;;;;5068705;28;20089;-46
2021/03/09 11:34:59;;;;;;;12.52;8.30;;;5.40;89.00;;;;;;5058676;28;20537;-45
2021/03/09 11:37:25;;;;;;;16.80;9.18;;;5.20;91.50;;;;;;5066738;28;20107;-46
2021/03/09 11:39:50;;;;;;;19.10;9.52;;;5.00;95.30;;;;;;5062586;28;20044;-47
2021/03/09 11:42:16;;;;;;;16.92;8.55;;;5.10;96.90;;;;;;5070197;28;20028;-45
2021/03/09 11:44:41;;;;;;;15.43;8.63;;;5.20;96.90;;;;;;5070414;28;20035;-46
2021/03/09 11:47:07;;;;;;;15.05;9.07;;;5.30;96.90;;;;;;5069535;28;20086;-46
2021/03/09 11:49:32;;;;;;;16.25;8.05;;;5.40;96.70;;;;;;5060701;28;20097;-46
2021/03/09 11:51:58;;;;;;;12.98;8.05;;;5.40;96.70;;;;;;5054254;28;20018;-46
2021/03/09 11:54:23;;;;;;;16.08;8.60;;;5.60;95.90;;;;;;5060484;28;20047;-46
2021/03/09 11:56:49;;;;;;;16.42;9.15;;;5.70;98.00;;;;;;5058887;28;20035;-45
2021/03/09 11:59:14;;;;;;;17.08;9.50;;;5.80;99.90;;;;;;5055903;28;20474;-46
2021/03/09 12:01:40;;;;;;;15.88;9.88;;;5.80;99.90;;;;;;5057893;28;20094;-46
2021/03/09 12:04:05;;;;;;;17.63;9.82;;;5.90;99.90;;;;;;5055217;28;20095;-46
2021/03/09 12:06:31;;;;;;;13.82;9.43;;;6.00;99.60;;;;;;5056482;28;20071;-45
2021/03/09 12:08:56;;;;;;;17.20;10.52;;;6.10;98.80;;;;;;5058458;28;20051;-49
2021/03/09 12:11:22;;;;;;;17.60;10.15;;;6.20;99.40;;;;;;5055796;28;20085;-48
2021/03/09 12:13:48;;;;;;;19.65;11.10;;;6.20;99.90;;;;;;5053711;28;20248;-46
2021/03/09 12:16:13;;;;;;;18.35;9.65;;;6.20;99.90;;;;;;5057090;28;20479;-46
2021/03/09 12:18:39;;;;;;;19.05;11.05;;;6.20;99.90;;;;;;5058709;28;20021;-46
2021/03/09 12:21:05;;;;;;;19.17;10.60;;;6.20;99.90;;;;;;5057342;28;20493;-46
2021/03/09 12:23:30;;;;;;;18.77;10.73;;;6.20;99.90;;;;;;5057466;28;20382;-48
2021/03/09 12:25:56;;;;;;;17.55;10.38;;;6.20;99.90;;;;;;5053381;28;20028;-45
2021/03/09 12:28:21;;;;;;;16.08;10.15;;;6.20;99.90;;;;;;5059780;28;20119;-48
2021/03/09 12:30:48;;;;;;;17.33;10.13;;;6.20;99.90;;;;;;5056936;28;20044;-47
2021/03/09 12:33:15;;;;;;;19.10;10.65;;;6.10;99.90;;;;;;5058054;28;20020;-46
2021/03/09 12:35:40;;;;;;;19.08;10.73;;;6.10;99.90;;;;;;5058130;28;20047;-45
2021/03/09 12:38:06;;;;;;;18.13;10.05;;;6.00;99.90;;;;;;5056526;28;20013;-46
2021/03/09 12:40:32;;;;;;;22.00;11.02;;;5.90;99.90;;;;;;5057922;28;20042;-45
2021/03/09 12:42:57;;;;;;;19.33;10.27;;;5.90;99.90;;;;;;5058153;28;20293;-46
2021/03/09 12:45:23;;;;;;;18.70;11.30;;;5.90;99.90;;;;;;5056927;28;20033;-47
2021/03/09 12:47:49;;;;;;;21.50;10.38;;;5.90;99.90;;;;;;5058770;28;20032;-48
2021/03/09 12:50:18;;;;;;;19.25;11.05;;;5.80;99.90;;;;;;5057516;28;20021;-45
2021/03/09 12:52:43;;;;;;;19.00;11.93;;;5.70;99.90;;;;;;5053630;28;20021;-49
2021/03/09 12:55:09;;;;;;;21.15;11.48;;;5.60;99.90;;;;;;5058050;28;20028;-47
2021/03/09 12:57:36;;;;;;;23.70;12.55;;;5.40;99.90;;;;;;5059226;28;20052;-46
2021/03/09 13:00:06;;;;;;;21.88;12.10;;;5.40;99.90;;;;;;5055417;28;20021;-46
2021/03/09 13:02:32;;;;;;;24.95;13.77;;;5.10;99.90;;;;;;5057159;28;20441;-49